Terminal Aerodrome Forecast
Issued by NWS Cleveland, OH

Home | Current Version | Previous Version | Text Only | Print | Product List | Glossary On
Versions: 1 2 3 4 5 6 7 8 9 10 11 12 13 14 15
000
FTUS41 KCLE 180500
TAFCAK
TAF
KCAK 180527Z 1806/1906 18004KT P6SM SKC
     FM181100 20003KT 4SM BR SCT250
     FM181300 29006KT P6SM FEW050 SCT200
     FM181900 36012KT P6SM FEW050 BKN200
     FM190100 06008KT P6SM BKN200=

USA.gov is the U.S. government's official web portal to all federal, state and local government web resources and services.